| Date | Time | Temp. (oF) | Dew Point (oF) | Rel. Hum. (%) | Press. (in.) | Wind Dir. | Wind Speed (mph) | Hourly Rainfall (in.) |
|
|---|---|---|---|---|---|---|---|---|---|
| 1 | 12/18 | 00:00 | 35 | 29 | 80 | 30.13 | ESE | 2 | 0.00 |
| 2 | 12/17 | 23:00 | 35 | 29 | 79 | 30.14 | ESE | 3 | 0.00 |
| 3 | 12/17 | 22:00 | 35 | 29 | 80 | 30.18 | ENE | 4 | 0.00 |
| 4 | 12/17 | 21:00 | 35 | 29 | 80 | 30.18 | ENE | 4 | 0.00 |
| 5 | 12/17 | 20:00 | 36 | 30 | 79 | 30.19 | ENE | 4 | 0.00 |
| 6 | 12/17 | 19:00 | 36 | 30 | 79 | 30.20 | NE | 2 | 0.00 |
| 7 | 12/17 | 18:00 | 37 | 29 | 75 | 30.21 | NE | 2 | 0.00 |
| 8 | 12/17 | 17:00 | 38 | 30 | 73 | 30.18 | E | 4 | 0.00 |
| 9 | 12/17 | 16:00 | 41 | 31 | 68 | 30.16 | ESE | 4 | 0.00 |
| 10 | 12/17 | 15:00 | 44 | 29 | 57 | 30.15 | NNE | 2 | 0.00 |
| 11 | 12/17 | 14:00 | 43 | 29 | 58 | 30.15 | NNE | 4 | 0.00 |
| 12 | 12/17 | 13:00 | 41 | 28 | 62 | 30.19 | SSE | 3 | 0.00 |
| 13 | 12/17 | 12:00 | 39 | 29 | 68 | 30.23 | E | 2 | 0.00 |
| 14 | 12/17 | 11:00 | 36 | 29 | 77 | 30.25 | NE | 2 | 0.00 |
| 15 | 12/17 | 10:00 | 32 | 28 | 88 | 30.25 | ENE | 2 | 0.00 |
| 16 | 12/17 | 09:00 | 27 | 26 | 96 | 30.24 | WNW | 1 | 0.00 |
| 17 | 12/17 | 08:00 | 25 | 24 | 97 | 30.25 | WNW | 0 | 0.00 |
| 18 | 12/17 | 07:00 | 23 | 22 | 97 | 30.23 | WSW | 0 | 0.00 |
| 19 | 12/17 | 06:00 | 23 | 22 | 96 | 30.21 | WSW | 0 | 0.00 |
| 20 | 12/17 | 05:00 | 23 | 22 | 98 | 30.20 | W | 1 | 0.00 |
| 21 | 12/17 | 04:00 | 23 | 22 | 97 | 30.21 | W | 0 | 0.00 |
| 22 | 12/17 | 03:00 | 25 | 23 | 95 | 30.21 | W | 1 | 0.00 |
| 23 | 12/17 | 02:00 | 25 | 23 | 93 | 30.18 | W | 1 | 0.00 |
| 24 | 12/17 | 01:00 | 26 | 23 | 92 | 30.17 | W | 0 | 0.00 |